createdAt,value
2022-10-04T00:02:04.549Z,7.15
2022-10-04T00:04:44.697Z,2.38
2022-10-04T00:07:23.672Z,4.32
2022-10-04T00:10:03.628Z,4.60
2022-10-04T00:12:38.739Z,7.72
2022-10-04T00:15:20.125Z,8.00
2022-10-04T00:18:01.739Z,9.10
2022-10-04T00:20:47.471Z,6.32
2022-10-04T00:23:40.706Z,4.68
2022-10-04T00:26:25.454Z,4.85
2022-10-04T00:28:53.121Z,3.85
2022-10-04T00:31:27.333Z,7.90
2022-10-04T00:34:09.274Z,7.05
2022-10-04T00:36:44.651Z,8.32
2022-10-04T00:39:17.917Z,4.13
2022-10-04T00:41:52.345Z,7.43
2022-10-04T00:44:37.431Z,8.40
2022-10-04T00:47:22.284Z,5.15
2022-10-04T00:49:57.662Z,9.02
2022-10-04T00:52:34.045Z,2.42
2022-10-04T00:55:09.097Z,3.92
2022-10-04T00:57:49.725Z,5.03
2022-10-04T01:00:19.766Z,3.80
2022-10-04T01:03:04.156Z,6.80
2022-10-04T01:05:36.611Z,9.07
2022-10-04T01:08:16.009Z,3.10
2022-10-04T01:11:02.329Z,3.47
2022-10-04T01:13:41.210Z,7.75
2022-10-04T01:16:25.050Z,2.90
2022-10-04T01:18:53.491Z,4.28
2022-10-04T01:21:31.121Z,3.80
2022-10-04T01:23:57.819Z,5.78
2022-10-04T01:26:30.611Z,5.80
2022-10-04T01:29:29.275Z,4.82
2022-10-04T01:32:01.029Z,6.03
2022-10-04T01:34:30.414Z,5.03
2022-10-04T01:37:01.353Z,5.65
2022-10-04T01:39:29.045Z,2.97
2022-10-04T01:42:16.011Z,4.65
2022-10-04T01:44:43.106Z,3.95
2022-10-04T01:47:26.851Z,2.38
2022-10-04T01:49:58.345Z,6.72
2022-10-04T01:52:40.139Z,6.65
2022-10-04T01:55:30.128Z,3.30
2022-10-04T01:58:04.496Z,5.75
2022-10-04T02:00:33.065Z,3.60
2022-10-04T02:03:16.204Z,3.65
2022-10-04T02:05:59.316Z,4.95
2022-10-04T02:08:30.811Z,3.92
2022-10-04T02:11:01.605Z,7.50
2022-10-04T02:13:34.201Z,5.32
2022-10-04T02:16:04.260Z,7.47
2022-10-04T02:18:34.384Z,7.63
2022-10-04T02:21:05.938Z,5.47
2022-10-04T02:23:34.260Z,3.20
2022-10-04T02:26:06.847Z,4.75
2022-10-04T02:28:36.003Z,5.18
2022-10-04T02:31:23.516Z,3.65
2022-10-04T02:33:53.370Z,11.75
2022-10-04T02:36:25.984Z,6.38
2022-10-04T02:39:39.611Z,6.40
2022-10-04T02:42:55.030Z,5.05
2022-10-04T02:45:48.269Z,15.40
2022-10-04T02:48:22.411Z,6.97
2022-10-04T02:50:56.391Z,3.35
2022-10-04T02:53:41.415Z,9.55
2022-10-04T02:56:12.203Z,6.22
2022-10-04T02:58:42.315Z,6.15
2022-10-04T03:01:17.847Z,4.50
2022-10-04T03:03:47.455Z,4.38
2022-10-04T03:06:19.229Z,7.57
2022-10-04T03:08:59.216Z,10.90
2022-10-04T03:11:35.118Z,5.15
2022-10-04T03:14:05.341Z,8.77
2022-10-04T03:16:42.531Z,3.30
2022-10-04T03:19:12.389Z,5.13
2022-10-04T03:21:42.736Z,5.68
2022-10-04T03:24:16.980Z,7.40
2022-10-04T03:26:50.432Z,10.98
2022-10-04T03:29:19.506Z,6.47
2022-10-04T03:31:50.522Z,6.47
2022-10-04T03:34:26.380Z,6.13
2022-10-04T03:36:58.760Z,7.55
2022-10-04T03:39:38.207Z,6.32
2022-10-04T03:42:12.875Z,6.65
2022-10-04T03:44:41.801Z,10.00
2022-10-04T03:47:26.625Z,7.13
2022-10-04T03:49:57.877Z,5.43
2022-10-04T03:52:37.734Z,9.32
2022-10-04T03:55:08.372Z,5.03
2022-10-04T03:57:37.305Z,4.60
2022-10-04T04:00:07.099Z,6.00
2022-10-04T04:02:50.313Z,3.35
2022-10-04T04:05:24.354Z,6.35
2022-10-04T04:08:15.443Z,4.68
2022-10-04T04:10:48.656Z,8.57
2022-10-04T04:13:31.311Z,7.03
2022-10-04T04:16:02.075Z,5.85
2022-10-04T04:18:35.020Z,5.45
2022-10-04T04:21:06.300Z,9.52
2022-10-04T04:23:48.749Z,5.05
2022-10-04T04:26:28.024Z,5.70
2022-10-04T04:29:13.404Z,9.05
2022-10-04T04:31:52.143Z,5.90
2022-10-04T04:34:30.044Z,7.32
2022-10-04T04:37:00.923Z,9.13
2022-10-04T04:39:39.817Z,7.57
2022-10-04T04:42:21.408Z,10.43
2022-10-04T04:45:00.284Z,5.70
2022-10-04T04:47:42.816Z,7.45
2022-10-04T04:50:37.547Z,9.00
2022-10-04T04:53:21.524Z,6.15
2022-10-04T04:56:10.443Z,8.45
2022-10-04T04:58:46.742Z,11.02
2022-10-04T05:01:25.236Z,11.07
2022-10-04T05:04:12.727Z,12.68
2022-10-04T05:06:42.571Z,5.50
2022-10-04T05:09:26.493Z,9.77
2022-10-04T05:11:57.433Z,5.50
2022-10-04T05:14:25.885Z,11.63
2022-10-04T05:16:55.296Z,7.65
2022-10-04T05:19:38.028Z,9.57
2022-10-04T05:22:11.738Z,8.23
2022-10-04T05:24:44.854Z,6.85
2022-10-04T05:27:32.578Z,8.68
2022-10-04T05:30:37.923Z,10.75
2022-10-04T05:33:41.292Z,11.85
2022-10-04T05:36:28.369Z,6.90
2022-10-04T05:39:09.759Z,12.98
2022-10-04T05:42:03.156Z,13.32
2022-10-04T05:44:35.231Z,8.27
2022-10-04T05:47:06.255Z,11.18
2022-10-04T05:49:44.917Z,5.00
2022-10-04T05:52:25.238Z,11.77
2022-10-04T05:55:16.356Z,6.75
2022-10-04T05:58:08.481Z,12.18
2022-10-04T06:03:18.636Z,5.35
2022-10-04T06:05:54.290Z,5.93
2022-10-04T06:08:23.631Z,8.13
2022-10-04T06:11:29.436Z,6.95
2022-10-04T06:14:40.551Z,8.85
2022-10-04T06:17:26.061Z,9.40
2022-10-04T06:20:20.134Z,7.47
2022-10-04T06:22:51.764Z,13.60
2022-10-04T06:25:50.863Z,18.05
2022-10-04T06:28:27.791Z,10.52
2022-10-04T06:31:12.949Z,13.63
2022-10-04T06:33:57.835Z,10.10
2022-10-04T06:36:33.610Z,6.82
2022-10-04T06:39:15.859Z,3.55
2022-10-04T06:41:42.671Z,6.32
2022-10-04T06:44:28.827Z,9.25
2022-10-04T06:47:23.871Z,9.05
2022-10-04T06:50:15.832Z,5.88
2022-10-04T06:53:01.570Z,5.32
2022-10-04T06:55:47.143Z,5.40
2022-10-04T06:58:53.745Z,6.65
2022-10-04T07:01:35.099Z,6.82
2022-10-04T07:05:07.124Z,8.38
2022-10-04T07:07:38.749Z,7.05
2022-10-04T07:10:20.445Z,13.90
2022-10-04T07:13:28.741Z,8.02
2022-10-04T07:16:08.331Z,5.38
2022-10-04T07:18:42.871Z,10.23
2022-10-04T07:21:16.896Z,8.75
2022-10-04T07:23:53.806Z,6.25
2022-10-04T07:26:44.706Z,8.23
2022-10-04T07:29:23.007Z,11.60
2022-10-04T07:32:05.941Z,8.63
2022-10-04T07:34:45.527Z,9.95
2022-10-04T07:37:14.018Z,10.00
2022-10-04T07:40:02.140Z,8.48
2022-10-04T07:42:33.793Z,7.05
2022-10-04T07:45:10.315Z,7.45
2022-10-04T07:47:37.123Z,4.95
2022-10-04T07:50:22.494Z,8.27
2022-10-04T07:53:26.687Z,6.95
2022-10-04T07:56:19.289Z,7.60
2022-10-04T07:59:18.496Z,6.55
2022-10-04T08:01:57.953Z,5.70
2022-10-04T08:04:46.110Z,7.72
2022-10-04T08:07:24.562Z,6.65
2022-10-04T08:10:03.564Z,7.18
2022-10-04T08:12:45.344Z,4.55
2022-10-04T08:15:14.902Z,8.60
2022-10-04T08:18:05.970Z,7.18
2022-10-04T08:20:47.729Z,8.27
2022-10-04T08:23:44.819Z,7.32
2022-10-04T08:26:26.374Z,12.82
2022-10-04T08:29:43.784Z,8.50
2022-10-04T08:32:23.422Z,5.50
2022-10-04T08:35:09.556Z,8.23
2022-10-04T08:37:53.732Z,5.60
2022-10-04T08:40:47.612Z,6.70
2022-10-04T08:43:56.192Z,6.50
2022-10-04T08:47:13.319Z,6.53
2022-10-04T08:50:13.225Z,10.70
2022-10-04T08:52:48.690Z,7.20
2022-10-04T08:55:37.428Z,12.05
2022-10-04T08:58:42.535Z,13.55
2022-10-04T09:01:25.557Z,5.97
2022-10-04T09:04:27.183Z,8.65
2022-10-04T09:07:30.063Z,11.05
2022-10-04T09:10:29.029Z,5.78
2022-10-04T09:13:31.449Z,6.28
2022-10-04T09:16:16.559Z,7.55
2022-10-04T09:19:12.009Z,9.82
2022-10-04T09:22:01.342Z,16.77
2022-10-04T09:24:59.346Z,9.63
2022-10-04T09:27:56.856Z,9.32
2022-10-04T09:31:02.113Z,7.97
2022-10-04T09:34:01.052Z,8.38
2022-10-04T09:36:40.781Z,7.20
2022-10-04T09:39:30.448Z,6.32
2022-10-04T09:42:08.686Z,6.40
2022-10-04T09:45:06.083Z,5.45
2022-10-04T09:47:37.902Z,5.28
2022-10-04T09:50:34.042Z,6.97
2022-10-04T09:53:36.924Z,6.13
2022-10-04T09:56:22.189Z,6.90
2022-10-04T09:58:51.785Z,7.68
2022-10-04T10:01:40.969Z,5.15
2022-10-04T10:04:34.718Z,7.00
2022-10-04T10:07:13.351Z,7.60
2022-10-04T10:10:16.179Z,9.88
2022-10-04T10:13:07.284Z,4.43
2022-10-04T10:15:45.760Z,4.53
2022-10-04T10:18:35.230Z,6.68
2022-10-04T10:21:18.425Z,3.67
2022-10-04T10:24:19.725Z,9.82
2022-10-04T10:27:08.643Z,7.90
2022-10-04T10:30:05.654Z,9.10
2022-10-04T10:32:47.941Z,9.13
2022-10-04T10:35:45.806Z,6.95
2022-10-04T10:38:31.386Z,8.68
2022-10-04T10:41:19.318Z,8.35
2022-10-04T10:44:12.669Z,7.15
2022-10-04T10:47:01.388Z,4.63
2022-10-04T10:49:30.780Z,3.97
2022-10-04T10:52:27.067Z,7.07
2022-10-04T10:55:14.665Z,5.88
2022-10-04T10:58:25.545Z,5.55
2022-10-04T11:01:12.535Z,10.00
2022-10-04T11:03:57.777Z,7.65
2022-10-04T11:06:38.443Z,6.43
2022-10-04T11:09:20.186Z,4.72
2022-10-04T11:11:49.617Z,5.15
2022-10-04T11:14:55.227Z,8.13
2022-10-04T11:17:40.237Z,4.85
2022-10-04T11:20:44.973Z,3.58
2022-10-04T11:23:39.090Z,6.85
2022-10-04T11:26:34.106Z,5.13
2022-10-04T11:29:12.832Z,4.68
2022-10-04T11:32:01.403Z,5.75
2022-10-04T11:34:50.926Z,4.50
2022-10-04T11:37:55.194Z,15.52
2022-10-04T11:40:55.763Z,7.00
2022-10-04T11:44:15.983Z,11.10
2022-10-04T11:47:01.263Z,5.90
2022-10-04T11:49:57.943Z,7.88
2022-10-04T11:52:49.545Z,11.65
2022-10-04T11:55:54.171Z,5.28
2022-10-04T11:59:06.923Z,4.30
2022-10-04T12:01:55.056Z,8.40
2022-10-04T12:04:59.366Z,2.95
2022-10-04T12:08:01.468Z,8.07
2022-10-04T12:11:09.809Z,3.85
2022-10-04T12:14:24.849Z,7.78
2022-10-04T12:17:29.189Z,9.40
2022-10-04T12:20:40.091Z,6.63
2022-10-04T12:23:22.113Z,8.82
2022-10-04T12:26:13.613Z,8.63
2022-10-04T12:29:24.320Z,3.10
2022-10-04T12:31:57.222Z,5.93
2022-10-04T12:34:38.879Z,6.00
2022-10-04T12:37:24.107Z,6.30
2022-10-04T12:40:21.720Z,7.82
2022-10-04T12:43:31.014Z,7.38
2022-10-04T12:46:00.765Z,5.38
2022-10-04T12:49:03.504Z,6.18
2022-10-04T12:51:51.799Z,2.35
2022-10-04T12:55:01.995Z,3.92
2022-10-04T12:57:47.741Z,3.22
2022-10-04T13:00:22.933Z,3.42
2022-10-04T13:03:13.832Z,3.88
2022-10-04T13:05:52.474Z,3.38
2022-10-04T13:08:40.806Z,6.10
2022-10-04T13:11:51.585Z,5.75
2022-10-04T13:50:17.640Z,5.78
2022-10-04T13:53:11.950Z,3.65
2022-10-04T13:56:36.699Z,5.75
2022-10-04T13:59:21.458Z,2.60
2022-10-04T14:02:10.417Z,7.45
2022-10-04T14:05:10.375Z,4.07
2022-10-04T14:07:59.012Z,2.67
2022-10-04T14:10:43.810Z,3.20
2022-10-04T14:13:25.605Z,7.22
2022-10-04T14:16:13.611Z,6.70
2022-10-04T14:18:55.124Z,3.13
2022-10-04T14:21:36.576Z,3.22
2022-10-04T14:24:21.523Z,4.07
2022-10-04T14:27:06.695Z,3.85
2022-10-04T14:29:40.204Z,6.68
2022-10-04T14:32:20.450Z,8.43
2022-10-04T14:34:59.234Z,4.85
2022-10-04T14:37:47.880Z,6.30
2022-10-04T14:40:29.961Z,4.57
2022-10-04T14:43:24.850Z,4.70
2022-10-04T14:46:29.669Z,4.82
2022-10-04T14:48:59.386Z,6.13
2022-10-04T14:51:35.276Z,4.68
2022-10-04T14:54:18.757Z,5.80
2022-10-04T14:57:04.147Z,14.90
2022-10-04T14:59:33.563Z,14.27
2022-10-04T15:02:32.282Z,7.18
2022-10-04T15:05:27.598Z,8.93
2022-10-04T15:08:26.158Z,7.07
2022-10-04T15:11:05.056Z,4.70
2022-10-04T15:13:51.718Z,6.43
2022-10-04T15:16:39.738Z,9.00
2022-10-04T15:19:31.804Z,5.03
2022-10-04T15:22:22.031Z,17.30
2022-10-04T15:24:51.440Z,9.43
2022-10-04T15:27:33.141Z,7.40
2022-10-04T15:30:23.556Z,10.32
2022-10-04T15:33:17.031Z,6.18
2022-10-04T15:35:58.381Z,6.50
2022-10-04T15:38:32.821Z,6.95
2022-10-04T15:41:08.572Z,4.32
2022-10-04T15:44:06.102Z,3.60
2022-10-04T15:46:49.190Z,8.18
2022-10-04T15:49:52.934Z,11.02
2022-10-04T15:52:45.579Z,9.00
2022-10-04T15:56:13.703Z,9.45
2022-10-04T15:58:52.033Z,14.45
2022-10-04T16:01:41.279Z,6.97
2022-10-04T16:04:32.605Z,11.07
2022-10-04T16:07:22.874Z,9.57
2022-10-04T16:10:40.508Z,10.35
2022-10-04T16:13:16.092Z,8.20
2022-10-04T16:15:49.668Z,15.15
2022-10-04T16:21:48.298Z,11.30
2022-10-04T16:24:17.943Z,9.57
2022-10-04T16:26:45.462Z,8.15
2022-10-04T16:29:30.979Z,14.20
2022-10-04T16:32:15.135Z,6.65
2022-10-04T16:35:08.658Z,10.32
2022-10-04T16:37:43.290Z,9.27
2022-10-04T16:40:12.112Z,11.43
2022-10-04T16:43:01.390Z,12.38
2022-10-04T16:46:06.615Z,8.25
2022-10-04T16:48:57.295Z,11.50
2022-10-04T16:51:31.352Z,9.25
2022-10-04T16:54:27.810Z,12.93
2022-10-04T16:56:56.482Z,19.63
2022-10-04T16:59:51.643Z,15.45
2022-10-04T17:03:09.345Z,18.02
2022-10-04T17:06:14.970Z,16.55
2022-10-04T17:09:11.091Z,22.13
2022-10-04T17:11:44.641Z,26.55
2022-10-04T17:14:48.391Z,60.53
2022-10-04T17:17:43.742Z,20.73
2022-10-04T17:20:21.573Z,33.90
2022-10-04T17:23:01.639Z,19.25
2022-10-04T17:25:40.699Z,18.23
2022-10-04T17:28:32.040Z,11.50
2022-10-04T17:31:03.188Z,13.97
2022-10-04T17:33:51.576Z,13.77
2022-10-04T17:36:38.604Z,14.82
2022-10-04T17:39:30.181Z,16.90
2022-10-04T17:41:56.868Z,19.63
2022-10-04T17:44:40.021Z,21.90
2022-10-04T17:47:14.460Z,26.20
2022-10-04T17:50:09.444Z,32.78
2022-10-04T17:53:09.817Z,21.65
2022-10-04T17:55:48.581Z,24.00
2022-10-04T17:58:20.143Z,29.02
2022-10-04T18:01:08.215Z,27.42
2022-10-04T18:03:44.074Z,15.57
2022-10-04T18:06:29.432Z,27.90
2022-10-04T18:09:03.218Z,16.45
2022-10-04T18:11:55.437Z,17.95
2022-10-04T18:17:02.139Z,14.20
2022-10-04T18:19:42.897Z,27.43
2022-10-04T18:22:28.524Z,18.42
2022-10-04T18:25:15.039Z,14.15
2022-10-04T18:28:07.018Z,9.82
2022-10-04T18:33:05.328Z,13.13
2022-10-04T18:35:34.222Z,19.13
2022-10-04T18:38:27.454Z,15.77
2022-10-04T18:41:23.366Z,19.08
2022-10-04T18:43:50.040Z,12.80
2022-10-04T18:46:22.213Z,11.55
2022-10-04T18:48:53.060Z,13.75
2022-10-04T18:51:22.800Z,15.20
2022-10-04T18:54:00.055Z,20.45
2022-10-04T18:56:33.770Z,17.85
2022-10-04T18:59:39.318Z,12.45
2022-10-04T19:02:18.125Z,14.77
2022-10-04T19:04:49.710Z,12.27
2022-10-04T19:07:24.045Z,13.40
2022-10-04T19:10:16.110Z,13.48
2022-10-04T19:13:06.328Z,18.33
2022-10-04T19:15:41.995Z,18.50
2022-10-04T19:18:47.812Z,11.57
2022-10-04T19:21:49.366Z,13.93
2022-10-04T19:24:47.636Z,18.13
2022-10-04T19:27:23.510Z,23.73
2022-10-04T19:30:02.543Z,18.73
2022-10-04T19:33:06.970Z,17.95
2022-10-04T19:36:06.812Z,21.85
2022-10-04T19:38:39.547Z,15.90
2022-10-04T19:41:27.936Z,20.58
2022-10-04T19:44:01.650Z,18.02
2022-10-04T19:46:39.297Z,19.85
2022-10-04T19:49:19.892Z,32.25
2022-10-04T19:51:57.050Z,29.98
2022-10-04T19:54:39.719Z,24.88
2022-10-04T19:57:13.141Z,21.10
2022-10-04T19:59:41.985Z,26.55
2022-10-04T20:02:12.404Z,20.83
2022-10-04T20:04:39.987Z,23.40
2022-10-04T20:07:25.705Z,15.35
2022-10-04T20:09:54.400Z,16.98
2022-10-04T20:12:35.768Z,14.68
2022-10-04T20:15:26.601Z,15.50
2022-10-04T20:17:55.186Z,18.70
2022-10-04T20:20:44.176Z,18.50
2022-10-04T20:23:12.288Z,16.80
2022-10-04T20:25:49.281Z,20.73
2022-10-04T20:28:28.017Z,24.15
2022-10-04T20:31:03.043Z,23.02
2022-10-04T20:33:45.383Z,20.17
2022-10-04T20:36:21.185Z,27.52
2022-10-04T20:39:00.685Z,39.40
2022-10-04T20:41:50.452Z,21.50
2022-10-04T20:44:46.881Z,25.55
2022-10-04T20:47:47.709Z,16.63
2022-10-04T20:50:36.185Z,20.42
2022-10-04T20:53:07.190Z,21.00
2022-10-04T20:55:39.056Z,20.27
2022-10-04T21:00:57.712Z,25.48
2022-10-04T21:03:24.874Z,25.25
2022-10-04T21:06:07.050Z,21.80
2022-10-04T21:08:34.814Z,26.05
2022-10-04T21:11:21.419Z,18.83
2022-10-04T21:13:48.795Z,21.55
2022-10-04T21:16:37.270Z,19.35
2022-10-04T21:19:28.712Z,25.35
2022-10-04T21:21:55.935Z,25.67
2022-10-04T21:24:41.784Z,25.00
2022-10-04T21:27:12.020Z,29.27
2022-10-04T21:29:39.897Z,24.38
2022-10-04T21:32:07.055Z,21.10
2022-10-04T21:34:53.416Z,20.15
2022-10-04T21:37:21.038Z,20.02
2022-10-04T21:39:47.921Z,15.93
2022-10-04T21:42:14.776Z,21.42
2022-10-04T21:44:41.542Z,20.15
2022-10-04T21:47:09.131Z,22.70
2022-10-04T21:49:36.015Z,20.08
2022-10-04T21:52:02.687Z,19.10
2022-10-04T21:54:29.302Z,25.90
2022-10-04T21:56:56.187Z,21.15
2022-10-04T21:59:22.889Z,17.90
2022-10-04T22:01:49.669Z,19.00
2022-10-04T22:04:16.614Z,20.58
2022-10-04T22:06:43.922Z,21.70
2022-10-04T22:09:10.902Z,23.42
2022-10-04T22:11:37.558Z,17.20
2022-10-04T22:14:04.888Z,22.25
2022-10-04T22:16:31.567Z,23.10
2022-10-04T22:18:58.289Z,19.75
2022-10-04T22:21:25.001Z,17.20
2022-10-04T22:23:51.648Z,18.60
2022-10-04T22:26:21.202Z,18.65
2022-10-04T22:28:56.867Z,20.35
2022-10-04T22:31:29.133Z,16.25
2022-10-04T22:33:56.789Z,20.75
2022-10-04T22:36:37.371Z,23.70
2022-10-04T22:39:10.172Z,15.30
2022-10-04T22:41:58.328Z,20.88
2022-10-04T22:44:31.321Z,16.05
2022-10-04T22:47:01.174Z,21.75
2022-10-04T22:49:38.866Z,15.27
2022-10-04T22:52:23.325Z,15.50
2022-10-04T22:54:52.992Z,15.57
2022-10-04T22:57:20.845Z,20.83
2022-10-04T22:59:50.006Z,17.60
2022-10-04T23:02:26.519Z,15.18
2022-10-04T23:05:17.652Z,18.60
2022-10-04T23:07:45.554Z,24.25
2022-10-04T23:10:14.822Z,15.18
2022-10-04T23:12:49.118Z,20.40
2022-10-04T23:15:19.544Z,17.15
2022-10-04T23:17:52.227Z,19.77
2022-10-04T23:20:22.765Z,16.17
2022-10-04T23:22:53.156Z,16.75
2022-10-04T23:25:24.703Z,22.13
2022-10-04T23:27:51.323Z,22.13
2022-10-04T23:30:20.979Z,18.38
2022-10-04T23:32:50.285Z,22.40
2022-10-04T23:35:23.719Z,24.77
2022-10-04T23:37:50.724Z,20.58
2022-10-04T23:40:22.428Z,22.33
2022-10-04T23:42:51.866Z,22.20
2022-10-04T23:45:25.920Z,17.52
2022-10-04T23:47:55.984Z,19.33
2022-10-04T23:50:22.865Z,20.75
2022-10-04T23:52:51.701Z,25.02
2022-10-04T23:55:22.338Z,20.58
2022-10-04T23:57:49.626Z,20.35
